Promontory, Utah
Current Conditions -  °F | °C
As of 7:55 AM on Thursday 30 Oct 2014 (Local Time) from KBMC Reporting Station
Clear Clear  
Wind Chill: 34°   Ceiling: Unl
Heat Index: 34°   Visibility: 10mi
Dew Point: 28°   Wind: 0mph
Humidity: 79%   Direction: NA
Pressure: 30.29"   Gusts: NA
Location:  41.5038°N, 112.48°W
Report Text: KBMC 301355Z AUTO 00000KT 10SM CLR 01/M02 A3029 RMK AO1 T00131020
Loading
Personal Weather Stations






























Interactive Weather Map New forecast layout! Learn more

10-Day Weather Forecast

Advertisements
Track Severe Weather on mobile